sensor_id;sensor_type;location;lat;lon;timestamp;temperature;humidity
84330;SHT31;74510;42.676;23.432;2023-12-22T00:02:16;-1.08;88.51
84330;SHT31;74510;42.676;23.432;2023-12-22T00:04:42;-1.16;88.66
84330;SHT31;74510;42.676;23.432;2023-12-22T00:07:07;-0.98;88.34
84330;SHT31;74510;42.676;23.432;2023-12-22T00:09:33;-1.00;88.32
84330;SHT31;74510;42.676;23.432;2023-12-22T00:11:58;-1.04;87.61
84330;SHT31;74510;42.676;23.432;2023-12-22T00:14:23;-1.09;88.19
84330;SHT31;74510;42.676;23.432;2023-12-22T00:16:49;-1.04;88.48
84330;SHT31;74510;42.676;23.432;2023-12-22T00:19:14;-1.12;88.79
84330;SHT31;74510;42.676;23.432;2023-12-22T00:21:39;-1.18;89.26
84330;SHT31;74510;42.676;23.432;2023-12-22T00:24:05;-1.07;88.60
84330;SHT31;74510;42.676;23.432;2023-12-22T00:26:30;-0.94;88.39
84330;SHT31;74510;42.676;23.432;2023-12-22T00:28:56;-0.97;88.51
84330;SHT31;74510;42.676;23.432;2023-12-22T00:31:21;-1.12;88.65
84330;SHT31;74510;42.676;23.432;2023-12-22T00:33:47;-1.16;89.07
84330;SHT31;74510;42.676;23.432;2023-12-22T00:36:12;-1.15;89.33
84330;SHT31;74510;42.676;23.432;2023-12-22T00:38:38;-1.16;89.40
84330;SHT31;74510;42.676;23.432;2023-12-22T00:41:03;-1.12;89.78
84330;SHT31;74510;42.676;23.432;2023-12-22T00:43:28;-1.09;89.41
84330;SHT31;74510;42.676;23.432;2023-12-22T00:45:54;-1.08;89.36
84330;SHT31;74510;42.676;23.432;2023-12-22T00:48:21;-1.07;89.62
84330;SHT31;74510;42.676;23.432;2023-12-22T00:50:46;-1.01;89.88
84330;SHT31;74510;42.676;23.432;2023-12-22T00:53:12;-1.00;89.95
84330;SHT31;74510;42.676;23.432;2023-12-22T00:55:38;-0.98;90.02
84330;SHT31;74510;42.676;23.432;2023-12-22T00:58:04;-0.83;89.31
84330;SHT31;74510;42.676;23.432;2023-12-22T01:00:29;-0.81;89.46
84330;SHT31;74510;42.676;23.432;2023-12-22T01:02:54;-0.92;90.00
84330;SHT31;74510;42.676;23.432;2023-12-22T01:05:20;-0.91;90.01
84330;SHT31;74510;42.676;23.432;2023-12-22T01:07:45;-0.92;89.69
84330;SHT31;74510;42.676;23.432;2023-12-22T01:10:11;-0.95;89.77
84330;SHT31;74510;42.676;23.432;2023-12-22T01:12:36;-1.04;89.50
84330;SHT31;74510;42.676;23.432;2023-12-22T01:15:02;-1.13;89.55
84330;SHT31;74510;42.676;23.432;2023-12-22T01:17:27;-1.16;89.62
84330;SHT31;74510;42.676;23.432;2023-12-22T01:19:53;-1.07;88.88
84330;SHT31;74510;42.676;23.432;2023-12-22T01:22:18;-1.08;89.23
84330;SHT31;74510;42.676;23.432;2023-12-22T01:24:44;-1.07;89.35
84330;SHT31;74510;42.676;23.432;2023-12-22T01:27:11;-0.92;88.79
84330;SHT31;74510;42.676;23.432;2023-12-22T01:29:36;-0.97;89.04
84330;SHT31;74510;42.676;23.432;2023-12-22T01:32:02;-0.95;88.94
84330;SHT31;74510;42.676;23.432;2023-12-22T01:34:27;-0.92;88.56
84330;SHT31;74510;42.676;23.432;2023-12-22T01:36:53;-0.94;89.23
84330;SHT31;74510;42.676;23.432;2023-12-22T01:39:19;-0.90;88.97
84330;SHT31;74510;42.676;23.432;2023-12-22T01:41:44;-0.83;88.72
84330;SHT31;74510;42.676;23.432;2023-12-22T01:44:10;-0.87;89.72
84330;SHT31;74510;42.676;23.432;2023-12-22T01:46:36;-0.59;88.15
84330;SHT31;74510;42.676;23.432;2023-12-22T01:49:02;-0.74;88.64
84330;SHT31;74510;42.676;23.432;2023-12-22T01:51:29;-0.73;88.41
84330;SHT31;74510;42.676;23.432;2023-12-22T01:53:54;-0.76;88.33
84330;SHT31;74510;42.676;23.432;2023-12-22T01:56:20;-0.71;88.40
84330;SHT31;74510;42.676;23.432;2023-12-22T01:58:46;-0.80;89.01
84330;SHT31;74510;42.676;23.432;2023-12-22T02:01:12;-0.90;89.39
84330;SHT31;74510;42.676;23.432;2023-12-22T02:03:38;-0.90;89.57
84330;SHT31;74510;42.676;23.432;2023-12-22T02:06:04;-0.88;89.50
84330;SHT31;74510;42.676;23.432;2023-12-22T02:08:32;-0.84;89.40
84330;SHT31;74510;42.676;23.432;2023-12-22T02:10:58;-0.73;88.76
84330;SHT31;74510;42.676;23.432;2023-12-22T02:13:24;-0.74;88.89
84330;SHT31;74510;42.676;23.432;2023-12-22T02:16:01;-0.81;89.19
84330;SHT31;74510;42.676;23.432;2023-12-22T02:18:33;-0.76;89.47
84330;SHT31;74510;42.676;23.432;2023-12-22T02:21:00;-0.73;89.64
84330;SHT31;74510;42.676;23.432;2023-12-22T02:23:26;-0.63;88.67
84330;SHT31;74510;42.676;23.432;2023-12-22T02:25:57;-0.70;89.21
84330;SHT31;74510;42.676;23.432;2023-12-22T02:28:26;-0.48;88.36
84330;SHT31;74510;42.676;23.432;2023-12-22T02:33:52;-0.67;89.19
84330;SHT31;74510;42.676;23.432;2023-12-22T02:36:19;-0.67;89.36
84330;SHT31;74510;42.676;23.432;2023-12-22T02:38:46;-0.64;89.46
84330;SHT31;74510;42.676;23.432;2023-12-22T02:41:12;-0.42;88.55
84330;SHT31;74510;42.676;23.432;2023-12-22T02:43:37;-0.53;88.45
84330;SHT31;74510;42.676;23.432;2023-12-22T02:46:03;-0.49;88.68
84330;SHT31;74510;42.676;23.432;2023-12-22T02:48:28;-0.37;88.34
84330;SHT31;74510;42.676;23.432;2023-12-22T02:50:54;-0.28;88.15
84330;SHT31;74510;42.676;23.432;2023-12-22T02:53:19;-0.30;87.52
84330;SHT31;74510;42.676;23.432;2023-12-22T02:55:44;-0.30;88.28
84330;SHT31;74510;42.676;23.432;2023-12-22T02:58:10;-0.21;87.46
84330;SHT31;74510;42.676;23.432;2023-12-22T03:00:35;-0.25;88.05
84330;SHT31;74510;42.676;23.432;2023-12-22T03:03:02;-0.36;88.55
84330;SHT31;74510;42.676;23.432;2023-12-22T03:05:27;-0.43;88.96
84330;SHT31;74510;42.676;23.432;2023-12-22T03:07:53;-0.40;88.90
84330;SHT31;74510;42.676;23.432;2023-12-22T03:10:18;-0.36;88.83
84330;SHT31;74510;42.676;23.432;2023-12-22T03:12:44;-0.37;88.67
84330;SHT31;74510;42.676;23.432;2023-12-22T03:15:09;-0.36;88.81
84330;SHT31;74510;42.676;23.432;2023-12-22T03:17:34;-0.33;88.71
84330;SHT31;74510;42.676;23.432;2023-12-22T03:20:00;-0.30;88.72
84330;SHT31;74510;42.676;23.432;2023-12-22T03:22:25;-0.33;88.96
84330;SHT31;74510;42.676;23.432;2023-12-22T03:24:51;-0.36;88.98
84330;SHT31;74510;42.676;23.432;2023-12-22T03:27:16;-0.30;88.75
84330;SHT31;74510;42.676;23.432;2023-12-22T03:29:43;-0.32;89.02
84330;SHT31;74510;42.676;23.432;2023-12-22T03:32:09;-0.14;88.26
84330;SHT31;74510;42.676;23.432;2023-12-22T03:34:34;-0.16;88.63
84330;SHT31;74510;42.676;23.432;2023-12-22T03:37:00;-0.21;88.64
84330;SHT31;74510;42.676;23.432;2023-12-22T03:39:25;-0.11;88.34
84330;SHT31;74510;42.676;23.432;2023-12-22T03:41:51;-0.14;88.42
84330;SHT31;74510;42.676;23.432;2023-12-22T03:44:16;-0.09;88.49
84330;SHT31;74510;42.676;23.432;2023-12-22T03:46:42;0.06;87.87
84330;SHT31;74510;42.676;23.432;2023-12-22T03:49:07;-0.06;88.85
84330;SHT31;74510;42.676;23.432;2023-12-22T03:51:33;-0.12;88.78
84330;SHT31;74510;42.676;23.432;2023-12-22T03:53:58;-0.11;89.14
84330;SHT31;74510;42.676;23.432;2023-12-22T03:56:23;-0.15;89.25
84330;SHT31;74510;42.676;23.432;2023-12-22T03:58:49;-0.06;88.90
84330;SHT31;74510;42.676;23.432;2023-12-22T04:01:14;-0.11;89.04
84330;SHT31;74510;42.676;23.432;2023-12-22T04:03:40;0.10;89.22
84330;SHT31;74510;42.676;23.432;2023-12-22T04:06:06;0.06;89.08
84330;SHT31;74510;42.676;23.432;2023-12-22T04:08:31;0.05;89.27
84330;SHT31;74510;42.676;23.432;2023-12-22T04:10:57;-0.02;89.43
84330;SHT31;74510;42.676;23.432;2023-12-22T04:13:22;-0.04;89.53
84330;SHT31;74510;42.676;23.432;2023-12-22T04:15:47;-0.06;89.73
84330;SHT31;74510;42.676;23.432;2023-12-22T04:18:13;0.19;90.04
84330;SHT31;74510;42.676;23.432;2023-12-22T04:20:38;0.44;88.95
84330;SHT31;74510;42.676;23.432;2023-12-22T04:23:04;0.46;88.75
84330;SHT31;74510;42.676;23.432;2023-12-22T04:25:30;0.35;89.20
84330;SHT31;74510;42.676;23.432;2023-12-22T04:27:55;0.22;89.85
84330;SHT31;74510;42.676;23.432;2023-12-22T04:30:20;0.12;90.74
84330;SHT31;74510;42.676;23.432;2023-12-22T04:32:46;0.09;91.10
84330;SHT31;74510;42.676;23.432;2023-12-22T04:35:11;0.30;90.90
84330;SHT31;74510;42.676;23.432;2023-12-22T04:37:37;0.33;90.83
84330;SHT31;74510;42.676;23.432;2023-12-22T04:40:02;0.40;90.65
84330;SHT31;74510;42.676;23.432;2023-12-22T04:42:29;0.37;90.53
84330;SHT31;74510;42.676;23.432;2023-12-22T04:44:54;0.57;89.91
84330;SHT31;74510;42.676;23.432;2023-12-22T04:47:19;0.60;89.90
84330;SHT31;74510;42.676;23.432;2023-12-22T04:49:46;0.46;90.57
84330;SHT31;74510;42.676;23.432;2023-12-22T04:52:11;0.39;91.19
84330;SHT31;74510;42.676;23.432;2023-12-22T04:54:37;0.35;91.52
84330;SHT31;74510;42.676;23.432;2023-12-22T04:57:03;0.36;91.58
84330;SHT31;74510;42.676;23.432;2023-12-22T04:59:29;0.37;91.70
84330;SHT31;74510;42.676;23.432;2023-12-22T05:01:54;0.52;91.72
84330;SHT31;74510;42.676;23.432;2023-12-22T05:04:20;0.54;90.97
84330;SHT31;74510;42.676;23.432;2023-12-22T05:06:46;0.50;91.34
84330;SHT31;74510;42.676;23.432;2023-12-22T05:09:12;0.47;91.60
84330;SHT31;74510;42.676;23.432;2023-12-22T05:11:37;0.49;91.47
84330;SHT31;74510;42.676;23.432;2023-12-22T05:14:03;0.57;91.30
84330;SHT31;74510;42.676;23.432;2023-12-22T05:16:29;0.54;91.25
84330;SHT31;74510;42.676;23.432;2023-12-22T05:18:59;0.68;91.23
84330;SHT31;74510;42.676;23.432;2023-12-22T05:21:25;0.92;89.38
84330;SHT31;74510;42.676;23.432;2023-12-22T05:23:50;0.73;90.26
84330;SHT31;74510;42.676;23.432;2023-12-22T05:26:20;0.71;90.69
84330;SHT31;74510;42.676;23.432;2023-12-22T05:28:45;0.68;91.02
84330;SHT31;74510;42.676;23.432;2023-12-22T05:31:11;0.60;91.45
84330;SHT31;74510;42.676;23.432;2023-12-22T05:33:37;0.63;91.63
84330;SHT31;74510;42.676;23.432;2023-12-22T05:36:03;0.63;91.37
84330;SHT31;74510;42.676;23.432;2023-12-22T05:38:28;0.65;91.65
84330;SHT31;74510;42.676;23.432;2023-12-22T05:40:55;0.68;91.65
84330;SHT31;74510;42.676;23.432;2023-12-22T05:43:20;0.73;91.50
84330;SHT31;74510;42.676;23.432;2023-12-22T05:45:45;0.70;91.58
84330;SHT31;74510;42.676;23.432;2023-12-22T05:48:11;0.84;91.32
84330;SHT31;74510;42.676;23.432;2023-12-22T05:50:36;0.83;90.92
84330;SHT31;74510;42.676;23.432;2023-12-22T05:53:02;0.78;91.39
84330;SHT31;74510;42.676;23.432;2023-12-22T05:55:27;0.83;91.61
84330;SHT31;74510;42.676;23.432;2023-12-22T05:57:53;0.89;91.97
84330;SHT31;74510;42.676;23.432;2023-12-22T06:00:19;0.88;91.97
84330;SHT31;74510;42.676;23.432;2023-12-22T06:02:44;0.89;91.94
84330;SHT31;74510;42.676;23.432;2023-12-22T06:05:10;0.91;91.82
84330;SHT31;74510;42.676;23.432;2023-12-22T06:07:36;1.26;90.97
84330;SHT31;74510;42.676;23.432;2023-12-22T06:10:01;1.11;90.74
84330;SHT31;74510;42.676;23.432;2023-12-22T06:12:27;1.08;91.24
84330;SHT31;74510;42.676;23.432;2023-12-22T06:14:52;1.21;90.43
84330;SHT31;74510;42.676;23.432;2023-12-22T06:17:17;1.12;91.12
84330;SHT31;74510;42.676;23.432;2023-12-22T06:19:43;1.12;91.43
84330;SHT31;74510;42.676;23.432;2023-12-22T06:22:08;1.05;91.50
84330;SHT31;74510;42.676;23.432;2023-12-22T06:24:36;1.06;91.79
84330;SHT31;74510;42.676;23.432;2023-12-22T06:27:02;1.19;91.68
84330;SHT31;74510;42.676;23.432;2023-12-22T06:29:27;1.13;91.43
84330;SHT31;74510;42.676;23.432;2023-12-22T06:31:52;1.22;91.11
84330;SHT31;74510;42.676;23.432;2023-12-22T06:34:18;1.18;91.37
84330;SHT31;74510;42.676;23.432;2023-12-22T06:36:44;1.19;91.45
84330;SHT31;74510;42.676;23.432;2023-12-22T06:39:09;1.23;91.60
84330;SHT31;74510;42.676;23.432;2023-12-22T06:41:34;1.52;90.69
84330;SHT31;74510;42.676;23.432;2023-12-22T06:44:00;1.66;90.07
84330;SHT31;74510;42.676;23.432;2023-12-22T06:46:26;1.64;90.07
84330;SHT31;74510;42.676;23.432;2023-12-22T06:48:52;1.54;89.97
84330;SHT31;74510;42.676;23.432;2023-12-22T06:53:48;1.53;90.15
84330;SHT31;74510;42.676;23.432;2023-12-22T06:56:21;1.47;90.20
84330;SHT31;74510;42.676;23.432;2023-12-22T06:58:48;1.40;91.06
84330;SHT31;74510;42.676;23.432;2023-12-22T07:01:34;1.43;91.54
84330;SHT31;74510;42.676;23.432;2023-12-22T07:04:00;1.66;89.87
84330;SHT31;74510;42.676;23.432;2023-12-22T07:06:28;1.68;89.85
84330;SHT31;74510;42.676;23.432;2023-12-22T07:11:47;1.64;90.59
84330;SHT31;74510;42.676;23.432;2023-12-22T07:14:13;1.59;91.09
84330;SHT31;74510;42.676;23.432;2023-12-22T07:16:38;1.52;91.45
84330;SHT31;74510;42.676;23.432;2023-12-22T07:19:04;1.60;91.41
84330;SHT31;74510;42.676;23.432;2023-12-22T07:21:30;1.63;91.63
84330;SHT31;74510;42.676;23.432;2023-12-22T07:23:56;1.75;90.61
84330;SHT31;74510;42.676;23.432;2023-12-22T07:26:23;1.68;91.17
84330;SHT31;74510;42.676;23.432;2023-12-22T07:28:49;1.68;91.87
84330;SHT31;74510;42.676;23.432;2023-12-22T07:31:15;1.66;91.83
84330;SHT31;74510;42.676;23.432;2023-12-22T07:33:40;1.66;92.06
84330;SHT31;74510;42.676;23.432;2023-12-22T07:36:07;1.73;92.48
84330;SHT31;74510;42.676;23.432;2023-12-22T07:38:32;1.70;92.44
84330;SHT31;74510;42.676;23.432;2023-12-22T07:40:58;1.90;92.83
84330;SHT31;74510;42.676;23.432;2023-12-22T07:43:24;2.21;90.75
84330;SHT31;74510;42.676;23.432;2023-12-22T07:45:49;2.04;91.00
84330;SHT31;74510;42.676;23.432;2023-12-22T07:48:16;2.07;91.15
84330;SHT31;74510;42.676;23.432;2023-12-22T07:50:41;2.07;92.04
84330;SHT31;74510;42.676;23.432;2023-12-22T07:53:07;2.05;92.02
84330;SHT31;74510;42.676;23.432;2023-12-22T07:55:33;2.05;91.80
84330;SHT31;74510;42.676;23.432;2023-12-22T07:57:59;2.05;92.51
84330;SHT31;74510;42.676;23.432;2023-12-22T08:00:24;2.09;92.75
84330;SHT31;74510;42.676;23.432;2023-12-22T08:02:50;2.09;92.78
84330;SHT31;74510;42.676;23.432;2023-12-22T08:05:15;2.08;91.65
84330;SHT31;74510;42.676;23.432;2023-12-22T08:07:41;2.02;91.93
84330;SHT31;74510;42.676;23.432;2023-12-22T08:10:06;2.05;91.97
84330;SHT31;74510;42.676;23.432;2023-12-22T08:12:32;2.15;92.46
84330;SHT31;74510;42.676;23.432;2023-12-22T08:14:58;2.12;92.67
84330;SHT31;74510;42.676;23.432;2023-12-22T08:17:23;2.11;92.47
84330;SHT31;74510;42.676;23.432;2023-12-22T08:19:49;2.25;93.02
84330;SHT31;74510;42.676;23.432;2023-12-22T08:22:15;2.28;92.51
84330;SHT31;74510;42.676;23.432;2023-12-22T08:24:40;2.30;92.82
84330;SHT31;74510;42.676;23.432;2023-12-22T08:27:07;2.35;93.16
84330;SHT31;74510;42.676;23.432;2023-12-22T08:29:32;2.45;92.16
84330;SHT31;74510;42.676;23.432;2023-12-22T08:31:58;2.45;91.87
84330;SHT31;74510;42.676;23.432;2023-12-22T08:34:23;2.46;91.94
84330;SHT31;74510;42.676;23.432;2023-12-22T08:36:49;2.38;92.05
84330;SHT31;74510;42.676;23.432;2023-12-22T08:39:15;2.32;92.78
84330;SHT31;74510;42.676;23.432;2023-12-22T08:41:40;2.35;92.99
84330;SHT31;74510;42.676;23.432;2023-12-22T08:44:06;2.36;93.22
84330;SHT31;74510;42.676;23.432;2023-12-22T08:46:32;2.36;93.25
84330;SHT31;74510;42.676;23.432;2023-12-22T08:48:57;2.57;93.14
84330;SHT31;74510;42.676;23.432;2023-12-22T08:51:27;2.56;93.18
84330;SHT31;74510;42.676;23.432;2023-12-22T08:53:54;2.59;93.43
84330;SHT31;74510;42.676;23.432;2023-12-22T08:56:23;2.57;93.49
84330;SHT31;74510;42.676;23.432;2023-12-22T08:58:50;2.60;93.12
84330;SHT31;74510;42.676;23.432;2023-12-22T09:01:17;2.63;93.38
84330;SHT31;74510;42.676;23.432;2023-12-22T09:03:43;2.76;93.40
84330;SHT31;74510;42.676;23.432;2023-12-22T09:06:14;2.93;92.42
84330;SHT31;74510;42.676;23.432;2023-12-22T09:08:40;2.87;92.71
84330;SHT31;74510;42.676;23.432;2023-12-22T09:11:05;2.87;92.99
84330;SHT31;74510;42.676;23.432;2023-12-22T09:13:30;2.83;93.39
84330;SHT31;74510;42.676;23.432;2023-12-22T09:15:59;2.87;93.40
84330;SHT31;74510;42.676;23.432;2023-12-22T09:18:24;2.86;93.28
84330;SHT31;74510;42.676;23.432;2023-12-22T09:20:50;2.90;92.83
84330;SHT31;74510;42.676;23.432;2023-12-22T09:23:15;2.96;92.93
84330;SHT31;74510;42.676;23.432;2023-12-22T09:25:40;3.03;92.31
84330;SHT31;74510;42.676;23.432;2023-12-22T09:28:06;3.08;91.87
84330;SHT31;74510;42.676;23.432;2023-12-22T09:30:31;3.14;92.03
84330;SHT31;74510;42.676;23.432;2023-12-22T09:32:57;3.15;92.44
84330;SHT31;74510;42.676;23.432;2023-12-22T09:35:23;3.25;92.22
84330;SHT31;74510;42.676;23.432;2023-12-22T09:37:50;3.28;91.89
84330;SHT31;74510;42.676;23.432;2023-12-22T09:40:15;3.36;92.35
84330;SHT31;74510;42.676;23.432;2023-12-22T09:42:41;3.43;92.07
84330;SHT31;74510;42.676;23.432;2023-12-22T09:45:11;3.55;91.75
84330;SHT31;74510;42.676;23.432;2023-12-22T09:47:37;3.45;91.81
84330;SHT31;74510;42.676;23.432;2023-12-22T09:50:04;3.55;92.00
84330;SHT31;74510;42.676;23.432;2023-12-22T09:52:31;3.42;92.50
84330;SHT31;74510;42.676;23.432;2023-12-22T09:54:57;3.40;92.58
84330;SHT31;74510;42.676;23.432;2023-12-22T09:57:24;3.49;92.95
84330;SHT31;74510;42.676;23.432;2023-12-22T09:59:51;3.43;92.89
84330;SHT31;74510;42.676;23.432;2023-12-22T10:02:17;3.62;92.59
84330;SHT31;74510;42.676;23.432;2023-12-22T10:04:43;3.72;92.48
84330;SHT31;74510;42.676;23.432;2023-12-22T10:07:09;3.66;92.64
84330;SHT31;74510;42.676;23.432;2023-12-22T10:09:36;3.70;93.01
84330;SHT31;74510;42.676;23.432;2023-12-22T10:12:03;3.63;92.91
84330;SHT31;74510;42.676;23.432;2023-12-22T10:14:30;3.67;92.79
84330;SHT31;74510;42.676;23.432;2023-12-22T10:16:57;3.67;92.85
84330;SHT31;74510;42.676;23.432;2023-12-22T10:19:22;3.73;92.27
84330;SHT31;74510;42.676;23.432;2023-12-22T10:21:50;3.93;92.44
84330;SHT31;74510;42.676;23.432;2023-12-22T10:27:13;4.24;91.13
84330;SHT31;74510;42.676;23.432;2023-12-22T10:29:39;4.10;91.20
84330;SHT31;74510;42.676;23.432;2023-12-22T10:32:05;4.27;90.50
84330;SHT31;74510;42.676;23.432;2023-12-22T10:34:31;4.25;90.26
84330;SHT31;74510;42.676;23.432;2023-12-22T10:36:58;4.17;90.52
84330;SHT31;74510;42.676;23.432;2023-12-22T10:39:27;4.44;91.15
84330;SHT31;74510;42.676;23.432;2023-12-22T10:41:53;4.56;90.11
84330;SHT31;74510;42.676;23.432;2023-12-22T10:44:19;4.59;90.38
84330;SHT31;74510;42.676;23.432;2023-12-22T10:46:46;4.76;90.99
84330;SHT31;74510;42.676;23.432;2023-12-22T10:49:12;4.89;89.94
84330;SHT31;74510;42.676;23.432;2023-12-22T10:51:38;4.86;90.25
84330;SHT31;74510;42.676;23.432;2023-12-22T10:54:04;4.83;90.42
84330;SHT31;74510;42.676;23.432;2023-12-22T10:56:31;4.94;89.28
84330;SHT31;74510;42.676;23.432;2023-12-22T10:58:56;4.84;89.35
84330;SHT31;74510;42.676;23.432;2023-12-22T11:01:29;4.87;89.36
84330;SHT31;74510;42.676;23.432;2023-12-22T11:04:09;5.00;88.36
84330;SHT31;74510;42.676;23.432;2023-12-22T11:06:37;5.03;88.00
84330;SHT31;74510;42.676;23.432;2023-12-22T11:09:10;5.19;88.72
84330;SHT31;74510;42.676;23.432;2023-12-22T11:11:39;5.23;88.31
84330;SHT31;74510;42.676;23.432;2023-12-22T11:14:06;5.31;88.05
84330;SHT31;74510;42.676;23.432;2023-12-22T11:16:33;5.31;88.53
84330;SHT31;74510;42.676;23.432;2023-12-22T11:18:59;5.34;88.45
84330;SHT31;74510;42.676;23.432;2023-12-22T11:21:26;5.52;87.99
84330;SHT31;74510;42.676;23.432;2023-12-22T11:23:52;5.69;87.53
84330;SHT31;74510;42.676;23.432;2023-12-22T11:26:19;5.86;87.16
84330;SHT31;74510;42.676;23.432;2023-12-22T11:28:48;5.96;86.91
84330;SHT31;74510;42.676;23.432;2023-12-22T11:31:14;6.11;85.55
84330;SHT31;74510;42.676;23.432;2023-12-22T11:33:47;6.10;85.07
84330;SHT31;74510;42.676;23.432;2023-12-22T11:36:13;6.02;84.86
84330;SHT31;74510;42.676;23.432;2023-12-22T11:38:43;6.05;85.10
84330;SHT31;74510;42.676;23.432;2023-12-22T11:41:12;6.05;85.08
84330;SHT31;74510;42.676;23.432;2023-12-22T11:43:40;6.05;84.82
84330;SHT31;74510;42.676;23.432;2023-12-22T11:46:06;6.02;84.78
84330;SHT31;74510;42.676;23.432;2023-12-22T11:48:32;6.02;85.36
84330;SHT31;74510;42.676;23.432;2023-12-22T11:50:58;5.99;85.50
84330;SHT31;74510;42.676;23.432;2023-12-22T11:53:30;5.98;84.79
84330;SHT31;74510;42.676;23.432;2023-12-22T11:56:05;5.92;85.82
84330;SHT31;74510;42.676;23.432;2023-12-22T11:58:47;5.96;86.14
84330;SHT31;74510;42.676;23.432;2023-12-22T12:01:25;5.95;86.81
84330;SHT31;74510;42.676;23.432;2023-12-22T12:03:52;5.99;87.05
84330;SHT31;74510;42.676;23.432;2023-12-22T12:08:56;6.07;86.67
84330;SHT31;74510;42.676;23.432;2023-12-22T12:11:22;6.28;84.88
84330;SHT31;74510;42.676;23.432;2023-12-22T12:13:49;6.64;81.17
84330;SHT31;74510;42.676;23.432;2023-12-22T12:16:18;6.78;79.54
84330;SHT31;74510;42.676;23.432;2023-12-22T12:18:44;6.95;77.73
84330;SHT31;74510;42.676;23.432;2023-12-22T12:21:11;6.99;77.22
84330;SHT31;74510;42.676;23.432;2023-12-22T12:23:37;7.07;76.16
84330;SHT31;74510;42.676;23.432;2023-12-22T12:26:06;7.10;74.99
84330;SHT31;74510;42.676;23.432;2023-12-22T12:28:33;7.12;74.53
84330;SHT31;74510;42.676;23.432;2023-12-22T12:30:59;7.13;73.08
84330;SHT31;74510;42.676;23.432;2023-12-22T12:33:25;7.13;73.58
84330;SHT31;74510;42.676;23.432;2023-12-22T12:35:53;7.20;72.34
84330;SHT31;74510;42.676;23.432;2023-12-22T12:38:23;7.19;72.40
84330;SHT31;74510;42.676;23.432;2023-12-22T12:40:50;7.10;73.14
84330;SHT31;74510;42.676;23.432;2023-12-22T12:43:17;7.15;71.78
84330;SHT31;74510;42.676;23.432;2023-12-22T12:45:43;7.13;71.88
84330;SHT31;74510;42.676;23.432;2023-12-22T12:48:09;7.13;72.18
84330;SHT31;74510;42.676;23.432;2023-12-22T12:50:34;7.00;72.35
84330;SHT31;74510;42.676;23.432;2023-12-22T12:53:00;6.96;73.31
84330;SHT31;74510;42.676;23.432;2023-12-22T12:55:26;6.96;71.76
84330;SHT31;74510;42.676;23.432;2023-12-22T12:57:52;7.03;71.19
84330;SHT31;74510;42.676;23.432;2023-12-22T13:00:28;7.02;71.40
84330;SHT31;74510;42.676;23.432;2023-12-22T13:03:04;7.03;71.53
84330;SHT31;74510;42.676;23.432;2023-12-22T13:05:30;7.10;71.24
84330;SHT31;74510;42.676;23.432;2023-12-22T13:08:09;7.09;72.00
84330;SHT31;74510;42.676;23.432;2023-12-22T13:10:34;6.91;72.30
84330;SHT31;74510;42.676;23.432;2023-12-22T13:13:00;6.86;72.57
84330;SHT31;74510;42.676;23.432;2023-12-22T13:15:25;6.92;71.71
84330;SHT31;74510;42.676;23.432;2023-12-22T13:17:51;6.91;71.84
84330;SHT31;74510;42.676;23.432;2023-12-22T13:20:17;6.97;71.39
84330;SHT31;74510;42.676;23.432;2023-12-22T13:22:43;6.93;71.34
84330;SHT31;74510;42.676;23.432;2023-12-22T13:25:09;6.93;71.29
84330;SHT31;74510;42.676;23.432;2023-12-22T13:30:11;6.88;70.95
84330;SHT31;74510;42.676;23.432;2023-12-22T13:32:37;6.92;70.03
84330;SHT31;74510;42.676;23.432;2023-12-22T13:35:03;6.92;69.76
84330;SHT31;74510;42.676;23.432;2023-12-22T13:37:29;6.91;69.38
84330;SHT31;74510;42.676;23.432;2023-12-22T13:39:56;6.89;69.90
84330;SHT31;74510;42.676;23.432;2023-12-22T13:42:22;6.95;68.99
84330;SHT31;74510;42.676;23.432;2023-12-22T13:44:48;6.95;68.71
84330;SHT31;74510;42.676;23.432;2023-12-22T13:47:21;6.91;69.87
84330;SHT31;74510;42.676;23.432;2023-12-22T13:49:46;6.86;69.19
84330;SHT31;74510;42.676;23.432;2023-12-22T13:52:38;6.85;69.30
84330;SHT31;74510;42.676;23.432;2023-12-22T13:55:13;6.84;69.89
84330;SHT31;74510;42.676;23.432;2023-12-22T13:57:40;6.75;70.12
84330;SHT31;74510;42.676;23.432;2023-12-22T14:00:29;6.71;70.56
84330;SHT31;74510;42.676;23.432;2023-12-22T14:02:54;6.74;70.79
84330;SHT31;74510;42.676;23.432;2023-12-22T14:05:20;6.74;69.54
84330;SHT31;74510;42.676;23.432;2023-12-22T14:07:46;6.67;70.41
84330;SHT31;74510;42.676;23.432;2023-12-22T14:10:12;6.64;71.06
84330;SHT31;74510;42.676;23.432;2023-12-22T14:12:38;6.52;71.53
84330;SHT31;74510;42.676;23.432;2023-12-22T14:15:10;6.67;71.13
84330;SHT31;74510;42.676;23.432;2023-12-22T14:17:36;6.59;70.95
84330;SHT31;74510;42.676;23.432;2023-12-22T14:20:02;6.68;70.56
84330;SHT31;74510;42.676;23.432;2023-12-22T14:22:30;6.72;69.62
84330;SHT31;74510;42.676;23.432;2023-12-22T14:24:55;6.88;66.87
84330;SHT31;74510;42.676;23.432;2023-12-22T14:27:23;6.97;66.96
84330;SHT31;74510;42.676;23.432;2023-12-22T14:29:48;6.91;67.15
84330;SHT31;74510;42.676;23.432;2023-12-22T14:32:14;6.92;67.10
84330;SHT31;74510;42.676;23.432;2023-12-22T14:34:44;6.82;67.09
84330;SHT31;74510;42.676;23.432;2023-12-22T14:37:10;6.89;66.88
84330;SHT31;74510;42.676;23.432;2023-12-22T14:39:36;6.84;67.14
84330;SHT31;74510;42.676;23.432;2023-12-22T14:42:01;6.95;65.70
84330;SHT31;74510;42.676;23.432;2023-12-22T14:44:28;6.89;67.13
84330;SHT31;74510;42.676;23.432;2023-12-22T14:46:53;6.89;66.90
84330;SHT31;74510;42.676;23.432;2023-12-22T14:49:19;6.95;66.17
84330;SHT31;74510;42.676;23.432;2023-12-22T14:51:45;6.84;66.33
84330;SHT31;74510;42.676;23.432;2023-12-22T14:54:12;6.71;67.18
84330;SHT31;74510;42.676;23.432;2023-12-22T14:56:40;6.69;67.90
84330;SHT31;74510;42.676;23.432;2023-12-22T14:59:08;6.74;67.29
84330;SHT31;74510;42.676;23.432;2023-12-22T15:01:35;6.71;66.45
84330;SHT31;74510;42.676;23.432;2023-12-22T15:04:00;6.65;66.87
84330;SHT31;74510;42.676;23.432;2023-12-22T15:06:27;6.81;66.08
84330;SHT31;74510;42.676;23.432;2023-12-22T15:08:52;6.85;66.34
84330;SHT31;74510;42.676;23.432;2023-12-22T15:11:18;6.72;66.68
84330;SHT31;74510;42.676;23.432;2023-12-22T15:13:43;6.78;66.08
84330;SHT31;74510;42.676;23.432;2023-12-22T15:16:09;6.65;66.96
84330;SHT31;74510;42.676;23.432;2023-12-22T15:18:34;6.76;66.78
84330;SHT31;74510;42.676;23.432;2023-12-22T15:21:00;6.63;67.31
84330;SHT31;74510;42.676;23.432;2023-12-22T15:23:25;6.68;65.67
84330;SHT31;74510;42.676;23.432;2023-12-22T15:25:55;6.68;64.96
84330;SHT31;74510;42.676;23.432;2023-12-22T15:28:20;6.74;64.52
84330;SHT31;74510;42.676;23.432;2023-12-22T15:30:46;6.68;64.60
84330;SHT31;74510;42.676;23.432;2023-12-22T15:33:11;6.78;63.50
84330;SHT31;74510;42.676;23.432;2023-12-22T15:35:36;6.81;62.91
84330;SHT31;74510;42.676;23.432;2023-12-22T15:38:02;6.67;63.59
84330;SHT31;74510;42.676;23.432;2023-12-22T15:40:28;6.76;63.05